sensor_id;sensor_type;location;lat;lon;timestamp;P1;durP1;ratioP1;P2;durP2;ratioP2
59167;SDS011;44948;55.046;73.266;2023-04-16T00:00:09;11.80;;;4.00;;
59167;SDS011;44948;55.046;73.266;2023-04-16T00:03:14;8.98;;;3.53;;
59167;SDS011;44948;55.046;73.266;2023-04-16T00:06:16;9.70;;;3.83;;
59167;SDS011;44948;55.046;73.266;2023-04-16T00:09:18;7.93;;;4.25;;
59167;SDS011;44948;55.046;73.266;2023-04-16T00:12:58;8.05;;;3.65;;
59167;SDS011;44948;55.046;73.266;2023-04-16T00:16:00;13.20;;;4.15;;
59167;SDS011;44948;55.046;73.266;2023-04-16T00:19:02;10.52;;;4.07;;
59167;SDS011;44948;55.046;73.266;2023-04-16T00:22:58;9.51;;;3.76;;
59167;SDS011;44948;55.046;73.266;2023-04-16T00:26:00;8.85;;;3.70;;
59167;SDS011;44948;55.046;73.266;2023-04-16T00:29:11;12.43;;;4.18;;
59167;SDS011;44948;55.046;73.266;2023-04-16T00:32:13;11.45;;;4.20;;
59167;SDS011;44948;55.046;73.266;2023-04-16T00:35:26;17.55;;;5.03;;
59167;SDS011;44948;55.046;73.266;2023-04-16T00:38:28;8.32;;;4.30;;
59167;SDS011;44948;55.046;73.266;2023-04-16T00:41:34;14.35;;;5.25;;
59167;SDS011;44948;55.046;73.266;2023-04-16T00:44:41;9.50;;;4.20;;
59167;SDS011;44948;55.046;73.266;2023-04-16T00:51:00;9.38;;;4.20;;
59167;SDS011;44948;55.046;73.266;2023-04-16T00:54:04;8.75;;;3.65;;
59167;SDS011;44948;55.046;73.266;2023-04-16T00:57:07;12.50;;;4.10;;
59167;SDS011;44948;55.046;73.266;2023-04-16T01:00:09;11.47;;;4.30;;
59167;SDS011;44948;55.046;73.266;2023-04-16T01:03:12;12.77;;;3.38;;
59167;SDS011;44948;55.046;73.266;2023-04-16T01:06:17;10.70;;;4.70;;
59167;SDS011;44948;55.046;73.266;2023-04-16T01:09:19;10.88;;;4.35;;
59167;SDS011;44948;55.046;73.266;2023-04-16T01:12:58;14.95;;;4.80;;
59167;SDS011;44948;55.046;73.266;2023-04-16T01:16:12;11.65;;;4.50;;
59167;SDS011;44948;55.046;73.266;2023-04-16T01:19:15;9.57;;;4.35;;
59167;SDS011;44948;55.046;73.266;2023-04-16T01:22:58;10.50;;;3.35;;
59167;SDS011;44948;55.046;73.266;2023-04-16T01:26:01;11.40;;;4.20;;
59167;SDS011;44948;55.046;73.266;2023-04-16T01:29:03;10.95;;;6.97;;
59167;SDS011;44948;55.046;73.266;2023-04-16T01:32:59;11.36;;;4.38;;
59167;SDS011;44948;55.046;73.266;2023-04-16T01:36:01;8.27;;;2.90;;
59167;SDS011;44948;55.046;73.266;2023-04-16T01:39:12;10.50;;;3.50;;
59167;SDS011;44948;55.046;73.266;2023-04-16T01:42:58;9.51;;;3.73;;
59167;SDS011;44948;55.046;73.266;2023-04-16T01:46:13;6.35;;;3.28;;
59167;SDS011;44948;55.046;73.266;2023-04-16T01:49:21;6.72;;;3.10;;
59167;SDS011;44948;55.046;73.266;2023-04-16T01:52:58;7.43;;;3.08;;
59167;SDS011;44948;55.046;73.266;2023-04-16T01:56:02;7.60;;;2.90;;
59167;SDS011;44948;55.046;73.266;2023-04-16T01:59:04;8.38;;;3.10;;
59167;SDS011;44948;55.046;73.266;2023-04-16T02:02:12;9.10;;;3.22;;
59167;SDS011;44948;55.046;73.266;2023-04-16T02:05:15;8.77;;;3.15;;
59167;SDS011;44948;55.046;73.266;2023-04-16T02:08:27;6.85;;;3.35;;
59167;SDS011;44948;55.046;73.266;2023-04-16T02:11:33;8.10;;;3.30;;
59167;SDS011;44948;55.046;73.266;2023-04-16T02:14:35;6.85;;;2.13;;
59167;SDS011;44948;55.046;73.266;2023-04-16T02:21:10;6.65;;;2.70;;
59167;SDS011;44948;55.046;73.266;2023-04-16T17:40:19;125.65;;;32.38;;
59167;SDS011;44948;55.046;73.266;2023-04-16T17:43:23;89.18;;;26.23;;
59167;SDS011;44948;55.046;73.266;2023-04-16T17:46:25;87.18;;;23.10;;
59167;SDS011;44948;55.046;73.266;2023-04-16T17:49:37;98.78;;;30.55;;
59167;SDS011;44948;55.046;73.266;2023-04-16T17:52:42;74.45;;;22.98;;
59167;SDS011;44948;55.046;73.266;2023-04-16T17:55:50;83.10;;;27.42;;
59167;SDS011;44948;55.046;73.266;2023-04-16T17:58:57;84.90;;;27.20;;
59167;SDS011;44948;55.046;73.266;2023-04-16T18:16:57;23.17;;;7.63;;
59167;SDS011;44948;55.046;73.266;2023-04-16T18:19:59;24.98;;;9.45;;
59167;SDS011;44948;55.046;73.266;2023-04-16T18:23:49;19.04;;;6.57;;
59167;SDS011;44948;55.046;73.266;2023-04-16T18:26:51;16.20;;;5.88;;
59167;SDS011;44948;55.046;73.266;2023-04-16T18:29:53;11.05;;;5.03;;
59167;SDS011;44948;55.046;73.266;2023-04-16T18:32:55;13.27;;;5.38;;
59167;SDS011;44948;55.046;73.266;2023-04-16T18:36:00;15.77;;;5.35;;
59167;SDS011;44948;55.046;73.266;2023-04-16T18:39:02;16.33;;;6.45;;
59167;SDS011;44948;55.046;73.266;2023-04-16T18:42:04;16.02;;;7.30;;
59167;SDS011;44948;55.046;73.266;2023-04-16T18:45:06;23.33;;;7.85;;
59167;SDS011;44948;55.046;73.266;2023-04-16T18:48:49;18.98;;;8.05;;
59167;SDS011;44948;55.046;73.266;2023-04-16T18:51:50;20.77;;;8.18;;
59167;SDS011;44948;55.046;73.266;2023-04-16T18:54:56;21.98;;;8.15;;
59167;SDS011;44948;55.046;73.266;2023-04-16T18:57:58;20.70;;;7.22;;
59167;SDS011;44948;55.046;73.266;2023-04-16T19:00:59;16.70;;;6.10;;
59167;SDS011;44948;55.046;73.266;2023-04-16T19:04:02;23.40;;;5.47;;
59167;SDS011;44948;55.046;73.266;2023-04-16T19:07:04;20.20;;;6.25;;
59167;SDS011;44948;55.046;73.266;2023-04-16T19:10:16;11.82;;;3.83;;
59167;SDS011;44948;55.046;73.266;2023-04-16T19:13:49;14.52;;;4.10;;
59167;SDS011;44948;55.046;73.266;2023-04-16T19:16:51;13.73;;;3.92;;
59167;SDS011;44948;55.046;73.266;2023-04-16T19:19:53;13.38;;;4.30;;
59167;SDS011;44948;55.046;73.266;2023-04-16T19:23:50;8.06;;;3.11;;
59167;SDS011;44948;55.046;73.266;2023-04-16T19:26:56;7.18;;;3.08;;
59167;SDS011;44948;55.046;73.266;2023-04-16T19:29:58;7.03;;;2.80;;
59167;SDS011;44948;55.046;73.266;2023-04-16T19:33:00;10.02;;;3.45;;
59167;SDS011;44948;55.046;73.266;2023-04-16T19:36:02;15.73;;;4.63;;
59167;SDS011;44948;55.046;73.266;2023-04-16T19:39:09;6.20;;;2.33;;
59167;SDS011;44948;55.046;73.266;2023-04-16T19:42:12;10.35;;;2.22;;
59167;SDS011;44948;55.046;73.266;2023-04-16T19:45:14;4.25;;;2.03;;
59167;SDS011;44948;55.046;73.266;2023-04-16T19:48:49;3.95;;;1.58;;
59167;SDS011;44948;55.046;73.266;2023-04-16T19:51:51;7.10;;;2.38;;
59167;SDS011;44948;55.046;73.266;2023-04-16T19:54:53;4.63;;;2.27;;
59167;SDS011;44948;55.046;73.266;2023-04-16T19:57:55;5.35;;;1.95;;
59167;SDS011;44948;55.046;73.266;2023-04-16T20:01:06;4.67;;;2.20;;
59167;SDS011;44948;55.046;73.266;2023-04-16T20:04:20;4.90;;;2.20;;
59167;SDS011;44948;55.046;73.266;2023-04-16T20:07:32;4.38;;;2.42;;
59167;SDS011;44948;55.046;73.266;2023-04-16T20:10:34;4.57;;;2.13;;
59167;SDS011;44948;55.046;73.266;2023-04-16T20:16:50;5.38;;;2.30;;
59167;SDS011;44948;55.046;73.266;2023-04-16T20:20:03;3.13;;;1.83;;
59167;SDS011;44948;55.046;73.266;2023-04-16T20:23:50;5.32;;;2.22;;
59167;SDS011;44948;55.046;73.266;2023-04-16T20:27:01;5.22;;;1.75;;
59167;SDS011;44948;55.046;73.266;2023-04-16T20:30:03;3.25;;;1.70;;
59167;SDS011;44948;55.046;73.266;2023-04-16T20:33:49;4.33;;;2.04;;
59167;SDS011;44948;55.046;73.266;2023-04-16T20:36:51;4.90;;;1.80;;
59167;SDS011;44948;55.046;73.266;2023-04-16T20:39:53;4.50;;;1.60;;
59167;SDS011;44948;55.046;73.266;2023-04-16T20:42:56;4.07;;;2.17;;
59167;SDS011;44948;55.046;73.266;2023-04-16T20:46:00;3.13;;;1.63;;
59167;SDS011;44948;55.046;73.266;2023-04-16T20:49:13;2.60;;;1.40;;
59167;SDS011;44948;55.046;73.266;2023-04-16T20:52:17;4.05;;;1.65;;
59167;SDS011;44948;55.046;73.266;2023-04-16T20:55:19;4.90;;;1.80;;
59167;SDS011;44948;55.046;73.266;2023-04-16T20:58:49;1.10;;;0.80;;
59167;SDS011;44948;55.046;73.266;2023-04-16T21:01:54;3.90;;;2.00;;
59167;SDS011;44948;55.046;73.266;2023-04-16T21:04:57;4.03;;;1.27;;
59167;SDS011;44948;55.046;73.266;2023-04-16T21:07:59;3.03;;;1.48;;
59167;SDS011;44948;55.046;73.266;2023-04-16T21:11:01;3.00;;;1.45;;
59167;SDS011;44948;55.046;73.266;2023-04-16T21:14:04;2.47;;;1.50;;
59167;SDS011;44948;55.046;73.266;2023-04-16T21:17:17;2.17;;;1.13;;
59167;SDS011;44948;55.046;73.266;2023-04-16T21:20:23;2.65;;;1.25;;
59167;SDS011;44948;55.046;73.266;2023-04-16T21:26:51;6.30;;;1.30;;
59167;SDS011;44948;55.046;73.266;2023-04-16T21:29:53;4.85;;;1.75;;
59167;SDS011;44948;55.046;73.266;2023-04-16T21:33:00;6.32;;;2.85;;
59167;SDS011;44948;55.046;73.266;2023-04-16T21:36:03;5.43;;;2.95;;
59167;SDS011;44948;55.046;73.266;2023-04-16T21:39:05;6.75;;;1.60;;
59167;SDS011;44948;55.046;73.266;2023-04-16T21:42:07;2.35;;;1.27;;
59167;SDS011;44948;55.046;73.266;2023-04-16T21:45:09;8.27;;;1.77;;
59167;SDS011;44948;55.046;73.266;2023-04-16T21:48:49;2.70;;;1.13;;
59167;SDS011;44948;55.046;73.266;2023-04-16T21:51:51;2.75;;;1.50;;
59167;SDS011;44948;55.046;73.266;2023-04-16T21:55:02;5.38;;;1.55;;
59167;SDS011;44948;55.046;73.266;2023-04-16T21:58:49;3.61;;;1.83;;
59167;SDS011;44948;55.046;73.266;2023-04-16T22:01:50;5.18;;;2.17;;
59167;SDS011;44948;55.046;73.266;2023-04-16T22:04:52;3.80;;;1.48;;
59167;SDS011;44948;55.046;73.266;2023-04-16T22:08:49;5.02;;;1.31;;
59167;SDS011;44948;55.046;73.266;2023-04-16T22:11:51;3.72;;;1.70;;
59167;SDS011;44948;55.046;73.266;2023-04-16T22:14:53;2.58;;;1.20;;
59167;SDS011;44948;55.046;73.266;2023-04-16T22:17:55;3.30;;;1.85;;
59167;SDS011;44948;55.046;73.266;2023-04-16T22:20:57;4.80;;;2.00;;
59167;SDS011;44948;55.046;73.266;2023-04-16T22:24:05;6.77;;;1.67;;
59167;SDS011;44948;55.046;73.266;2023-04-16T22:27:07;5.28;;;1.75;;
59167;SDS011;44948;55.046;73.266;2023-04-16T22:30:13;5.15;;;1.40;;
59167;SDS011;44948;55.046;73.266;2023-04-16T22:33:49;3.42;;;1.77;;
59167;SDS011;44948;55.046;73.266;2023-04-16T22:36:54;6.72;;;1.63;;
59167;SDS011;44948;55.046;73.266;2023-04-16T22:40:02;19.15;;;4.93;;
59167;SDS011;44948;55.046;73.266;2023-04-16T22:43:49;22.12;;;4.70;;
59167;SDS011;44948;55.046;73.266;2023-04-16T22:46:51;10.90;;;3.53;;
59167;SDS011;44948;55.046;73.266;2023-04-16T22:49:53;8.05;;;2.92;;
59167;SDS011;44948;55.046;73.266;2023-04-16T22:52:55;12.05;;;3.75;;
59167;SDS011;44948;55.046;73.266;2023-04-16T22:55:57;16.17;;;4.82;;
59167;SDS011;44948;55.046;73.266;2023-04-16T22:59:04;18.50;;;5.10;;
59167;SDS011;44948;55.046;73.266;2023-04-16T23:02:06;16.38;;;4.30;;
59167;SDS011;44948;55.046;73.266;2023-04-16T23:05:08;10.45;;;3.53;;
59167;SDS011;44948;55.046;73.266;2023-04-16T23:08:49;16.63;;;4.50;;
59167;SDS011;44948;55.046;73.266;2023-04-16T23:11:50;19.48;;;4.80;;
59167;SDS011;44948;55.046;73.266;2023-04-16T23:14:58;8.82;;;2.65;;
59167;SDS011;44948;55.046;73.266;2023-04-16T23:18:00;11.38;;;2.95;;
59167;SDS011;44948;55.046;73.266;2023-04-16T23:21:02;24.38;;;6.35;;
59167;SDS011;44948;55.046;73.266;2023-04-16T23:24:04;17.52;;;5.15;;
59167;SDS011;44948;55.046;73.266;2023-04-16T23:27:15;21.77;;;5.97;;
59167;SDS011;44948;55.046;73.266;2023-04-16T23:30:17;13.75;;;4.00;;
59167;SDS011;44948;55.046;73.266;2023-04-16T23:36:50;26.73;;;5.32;;
59167;SDS011;44948;55.046;73.266;2023-04-16T23:39:52;30.50;;;7.90;;
59167;SDS011;44948;55.046;73.266;2023-04-16T23:46:09;24.33;;;6.05;;
59167;SDS011;44948;55.046;73.266;2023-04-16T23:52:17;20.27;;;4.75;;
59167;SDS011;44948;55.046;73.266;2023-04-16T23:55:29;28.15;;;6.50;;
